TAF KHUL
KHUL 072327Z 0800/0824 27008KT P6SM SCT050 FM080900 VRB03KT P6SM SCT050 FM082000 06006KT P6SM OVC035=
METAR KHUL
WC KHUL
WS KHUL
WV KHUL